Time;durP1;ratioP1;P1;durP2;ratioP2;P2;SDS_P1;SDS_P2;PMS_P1;PMS_P2;Temp;Humidity;BMP_temperature;BMP_pressure;BME280_temperature;BME280_humidity;BME280_pressure;Samples;Min_cycle;Max_cycle;Signal;HPM_P1;HPM_P2
2021/12/25 00:00:01;;;;;;;5.60;4.50;;;11.00;96.60;;;;;;5122518;27;20692;-45
2021/12/25 00:02:28;;;;;;;5.37;4.87;;;11.00;96.70;;;;;;5123538;27;20421;-44
2021/12/25 00:04:54;;;;;;;5.20;4.50;;;10.90;96.80;;;;;;5140531;27;20473;-44
2021/12/25 00:07:19;;;;;;;5.17;4.57;;;10.80;96.90;;;;;;5123183;27;20405;-44
2021/12/25 00:09:45;;;;;;;5.07;4.53;;;10.80;97.10;;;;;;5141481;27;20402;-44
2021/12/25 00:12:10;;;;;;;5.27;4.73;;;10.70;97.20;;;;;;5140777;27;20170;-45
2021/12/25 00:14:36;;;;;;;6.07;5.50;;;10.70;97.30;;;;;;5141138;27;20184;-44
2021/12/25 00:17:05;;;;;;;6.10;5.30;;;10.60;97.30;;;;;;5140955;27;20563;-43
2021/12/25 00:19:35;;;;;;;5.90;5.03;;;10.60;97.40;;;;;;5141214;27;20212;-44
2021/12/25 00:22:10;;;;;;;7.60;5.90;;;10.60;97.50;;;;;;5124385;27;20460;-45
2021/12/25 00:24:42;;;;;;;6.07;5.20;;;10.60;97.60;;;;;;5140530;27;20819;-45
2021/12/25 00:35:12;;;;;;;5.80;5.20;;;10.40;98.00;;;;;;5141183;27;20872;-45
2021/12/25 00:37:38;;;;;;;6.60;5.97;;;10.40;98.00;;;;;;5140398;27;20452;-44
2021/12/25 00:40:06;;;;;;;5.90;5.07;;;10.40;98.10;;;;;;5122666;27;20452;-44
2021/12/25 00:42:36;;;;;;;6.40;5.80;;;10.40;98.10;;;;;;5140865;27;20171;-45
2021/12/25 00:45:07;;;;;;;6.43;5.83;;;10.30;98.10;;;;;;5140320;27;20420;-45
2021/12/25 00:47:35;;;;;;;6.00;5.40;;;10.30;98.20;;;;;;5139610;27;20456;-45
2021/12/25 00:50:01;;;;;;;6.60;5.90;;;10.30;98.20;;;;;;5140021;27;20431;-44
2021/12/25 00:52:27;;;;;;;6.13;5.53;;;10.30;98.30;;;;;;5140411;27;20411;-44
2021/12/25 00:54:52;;;;;;;6.73;6.10;;;10.30;98.40;;;;;;5138841;27;20413;-45
2021/12/25 00:57:18;;;;;;;5.27;4.77;;;10.30;98.40;;;;;;5138854;27;20175;-44
2021/12/25 00:59:44;;;;;;;7.17;6.43;;;10.30;98.40;;;;;;5138546;27;20207;-44
2021/12/25 01:02:09;;;;;;;6.30;5.60;;;10.20;98.40;;;;;;5138465;27;20186;-52
2021/12/25 01:04:35;;;;;;;6.37;5.70;;;10.20;98.50;;;;;;5138732;27;20185;-45
2021/12/25 01:07:02;;;;;;;6.90;5.50;;;10.20;98.50;;;;;;5138751;27;20181;-45
2021/12/25 01:09:28;;;;;;;6.60;5.80;;;10.20;98.50;;;;;;5138038;27;20176;-44
2021/12/25 01:11:55;;;;;;;6.60;5.90;;;10.20;98.50;;;;;;5139424;27;20909;-44
2021/12/25 01:15:07;;;;;;;6.80;6.20;;;10.20;98.60;;;;;;5121901;27;20565;-45
2021/12/25 01:17:39;;;;;;;6.20;5.40;;;10.10;98.50;;;;;;5127633;27;20448;-45
2021/12/25 01:31:22;;;;;;;6.07;5.00;;;10.10;98.50;;;;;;5105153;27;20413;-45
2021/12/25 01:47:46;;;;;;;6.20;5.60;;;10.10;98.50;;;;;;5139042;27;20494;-44
2021/12/25 01:49:56;;;;;;;6.83;6.00;;;10.10;98.50;;;;;;5139207;27;20447;-44
2021/12/25 01:52:26;;;;;;;5.87;5.33;;;10.10;98.50;;;;;;5139281;27;20477;-44
2021/12/25 01:54:53;;;;;;;6.50;5.90;;;10.00;98.50;;;;;;5139293;27;20425;-45
2021/12/25 01:57:19;;;;;;;7.50;6.50;;;10.00;98.50;;;;;;5138879;27;20671;-45
2021/12/25 01:59:45;;;;;;;6.30;5.70;;;10.00;98.60;;;;;;5120845;27;20436;-44
2021/12/25 02:02:14;;;;;;;6.83;6.23;;;10.00;98.60;;;;;;5139392;27;20463;-45
2021/12/25 02:04:40;;;;;;;5.33;4.93;;;10.00;98.60;;;;;;5121420;27;20172;-44
2021/12/25 02:07:06;;;;;;;6.97;6.27;;;10.00;98.70;;;;;;5139330;27;20466;-45
2021/12/25 02:09:31;;;;;;;8.07;6.03;;;10.00;98.80;;;;;;5138869;27;20501;-45
2021/12/25 02:12:00;;;;;;;6.40;5.53;;;10.00;98.70;;;;;;5138882;27;20565;-43
2021/12/25 02:14:26;;;;;;;7.33;6.33;;;10.00;98.70;;;;;;5121646;27;20198;-43
2021/12/25 02:17:01;;;;;;;6.63;5.93;;;9.90;99.30;;;;;;5138508;27;20421;-44
2021/12/25 02:19:43;;;;;;;7.17;6.20;;;9.90;99.30;;;;;;5138555;27;20203;-43
2021/12/25 02:25:35;;;;;;;7.50;6.80;;;9.90;99.40;;;;;;5117906;28;20911;-44
2021/12/25 02:28:03;;;;;;;6.67;6.07;;;9.90;99.50;;;;;;5118149;28;20418;-43
2021/12/25 02:30:31;;;;;;;8.50;6.60;;;9.80;99.50;;;;;;5118066;28;20430;-44
2021/12/25 02:32:58;;;;;;;8.00;6.73;;;9.80;99.50;;;;;;5118509;28;20410;-43
2021/12/25 02:35:25;;;;;;;8.03;7.23;;;9.80;99.60;;;;;;5118296;28;20447;-44
2021/12/25 02:37:51;;;;;;;6.93;6.23;;;9.80;99.70;;;;;;5100286;28;20465;-44
2021/12/25 02:40:19;;;;;;;8.10;7.30;;;9.80;99.70;;;;;;5117857;28;20474;-44
2021/12/25 02:42:45;;;;;;;7.50;6.50;;;9.80;99.70;;;;;;5118099;28;20670;-44
2021/12/25 02:45:16;;;;;;;7.73;7.03;;;9.80;99.80;;;;;;5117940;28;20428;-44
2021/12/25 02:47:46;;;;;;;5.93;5.40;;;9.80;99.80;;;;;;5096434;28;20242;-44
2021/12/25 02:50:12;;;;;;;6.40;5.80;;;9.80;99.90;;;;;;5098018;28;20428;-44
2021/12/25 02:52:38;;;;;;;6.40;5.03;;;9.80;99.90;;;;;;5097511;28;20460;-43
2021/12/25 02:55:06;;;;;;;6.20;5.33;;;9.80;99.90;;;;;;5097539;28;20813;-44
2021/12/25 02:57:32;;;;;;;5.70;5.03;;;9.80;99.90;;;;;;5097818;28;20433;-44
2021/12/25 02:59:58;;;;;;;5.60;5.00;;;9.70;99.90;;;;;;5097629;28;20422;-44
2021/12/25 03:02:24;;;;;;;5.47;4.93;;;9.80;99.90;;;;;;5097638;28;20517;-44
2021/12/25 03:04:50;;;;;;;6.80;5.77;;;9.80;99.90;;;;;;5097634;28;20407;-44
2021/12/25 03:07:17;;;;;;;6.53;5.10;;;9.70;99.90;;;;;;5097171;28;20430;-44
2021/12/25 03:09:43;;;;;;;4.70;4.20;;;9.70;99.90;;;;;;5097223;28;20698;-43
2021/12/25 03:12:12;;;;;;;7.30;6.17;;;9.70;99.90;;;;;;5097362;28;20434;-44
2021/12/25 03:15:02;;;;;;;6.27;5.43;;;9.70;99.90;;;;;;5097728;28;20422;-43
2021/12/25 03:17:27;;;;;;;7.53;5.70;;;9.70;99.90;;;;;;5097383;28;20437;-44
2021/12/25 03:19:55;;;;;;;7.57;6.20;;;9.70;99.90;;;;;;5097044;28;20407;-44
2021/12/25 03:22:21;;;;;;;6.17;5.23;;;9.70;99.90;;;;;;5097381;28;20426;-44
2021/12/25 03:24:46;;;;;;;6.07;5.47;;;9.70;99.90;;;;;;5097310;28;20874;-44
2021/12/25 03:27:12;;;;;;;7.23;5.20;;;9.70;99.90;;;;;;5097128;28;20476;-44
2021/12/25 03:29:41;;;;;;;8.97;6.50;;;9.80;99.90;;;;;;5096088;28;20188;-44
2021/12/25 03:32:08;;;;;;;6.90;6.20;;;9.70;99.90;;;;;;5097108;28;20191;-43
2021/12/25 03:34:34;;;;;;;6.87;6.27;;;9.80;99.90;;;;;;5100417;28;20411;-43
2021/12/25 03:37:00;;;;;;;7.63;6.83;;;9.80;99.90;;;;;;5100990;28;20416;-44
2021/12/25 03:39:26;;;;;;;6.67;5.97;;;9.80;99.90;;;;;;5100447;28;20593;-43
2021/12/25 03:41:52;;;;;;;6.40;4.70;;;9.70;99.80;;;;;;5100610;28;20413;-43
2021/12/25 03:44:17;;;;;;;5.77;5.20;;;9.70;99.90;;;;;;5100455;28;20169;-43
2021/12/25 03:46:44;;;;;;;5.40;4.93;;;9.70;99.90;;;;;;5107918;28;20231;-43
2021/12/25 03:49:27;;;;;;;6.60;5.90;;;9.70;99.90;;;;;;5121062;28;20248;-43
2021/12/25 03:57:51;;;;;;;6.13;5.57;;;9.70;99.90;;;;;;5078267;28;20992;-44
2021/12/25 04:00:26;;;;;;;7.60;6.40;;;9.60;99.90;;;;;;5106166;28;20446;-43
2021/12/25 04:02:58;;;;;;;7.57;6.07;;;9.60;99.90;;;;;;5120437;28;20440;-44
2021/12/25 04:05:29;;;;;;;6.00;5.40;;;9.60;99.90;;;;;;5120846;28;20803;-41
2021/12/25 04:08:04;;;;;;;8.50;7.40;;;9.60;99.90;;;;;;5120092;28;20754;-43
2021/12/25 04:10:35;;;;;;;6.57;5.90;;;9.60;99.90;;;;;;5120357;28;20532;-41
2021/12/25 04:13:04;;;;;;;7.47;6.77;;;9.60;99.90;;;;;;5120430;28;20437;-43
2021/12/25 04:15:30;;;;;;;7.20;6.50;;;9.60;99.90;;;;;;5120669;28;20418;-43
2021/12/25 04:17:55;;;;;;;7.37;6.67;;;9.60;99.90;;;;;;5120236;28;20975;-43
2021/12/25 04:20:21;;;;;;;8.20;7.30;;;9.60;99.90;;;;;;5120522;28;20504;-44
2021/12/25 04:22:57;;;;;;;10.27;9.27;;;9.60;99.90;;;;;;5101471;28;20214;-43
2021/12/25 04:25:29;;;;;;;10.03;9.00;;;9.60;99.90;;;;;;5120707;28;20842;-43
2021/12/25 04:28:00;;;;;;;10.63;9.53;;;9.60;99.90;;;;;;5120077;28;20498;-43
2021/12/25 05:05:29;;;;;;;4.57;4.13;;;9.50;99.90;;;;;;5118394;28;20450;-46
2021/12/25 05:07:55;;;;;;;4.70;4.17;;;9.50;99.90;;;;;;5119056;28;20721;-46
2021/12/25 05:10:21;;;;;;;3.93;3.63;;;9.50;99.90;;;;;;5117754;28;20502;-46
2021/12/25 05:12:47;;;;;;;4.10;3.70;;;9.50;99.90;;;;;;5118008;28;20413;-46
2021/12/25 05:15:15;;;;;;;4.27;3.67;;;9.60;99.90;;;;;;5117943;28;20183;-46
2021/12/25 05:17:41;;;;;;;4.37;3.97;;;9.60;99.90;;;;;;5118395;28;20248;-46
2021/12/25 05:20:07;;;;;;;5.10;4.27;;;9.60;99.90;;;;;;5118644;28;20425;-46
2021/12/25 05:22:33;;;;;;;4.87;4.30;;;9.60;99.90;;;;;;5119001;28;20263;-46
2021/12/25 05:24:58;;;;;;;4.90;4.30;;;9.60;99.90;;;;;;5118919;28;20863;-46
2021/12/25 05:27:24;;;;;;;4.03;3.63;;;9.60;99.90;;;;;;5118654;28;20195;-46
2021/12/25 05:29:50;;;;;;;5.37;4.30;;;9.60;99.90;;;;;;5115823;28;20183;-46
2021/12/25 05:32:17;;;;;;;5.30;3.83;;;9.60;99.80;;;;;;5116659;28;20179;-46
2021/12/25 05:34:43;;;;;;;5.30;3.77;;;9.60;99.80;;;;;;5116682;28;20196;-46
2021/12/25 05:37:08;;;;;;;4.43;3.90;;;9.60;99.80;;;;;;5098835;28;20493;-46
2021/12/25 05:39:34;;;;;;;4.10;3.70;;;9.60;99.80;;;;;;5116560;28;20544;-46
2021/12/25 05:42:02;;;;;;;4.33;3.93;;;9.60;99.80;;;;;;5116313;28;20176;-46
2021/12/25 05:44:28;;;;;;;4.83;4.20;;;9.60;99.70;;;;;;5117766;28;20175;-46
2021/12/25 05:46:54;;;;;;;4.50;3.87;;;9.60;99.70;;;;;;5118929;28;20464;-46
2021/12/25 05:49:20;;;;;;;4.57;4.10;;;9.60;99.80;;;;;;5118714;28;20418;-46
2021/12/25 05:51:46;;;;;;;5.80;4.77;;;9.60;99.80;;;;;;5118571;28;20176;-46
2021/12/25 05:54:11;;;;;;;5.87;4.80;;;9.60;99.80;;;;;;5119028;28;20435;-46
2021/12/25 05:56:37;;;;;;;4.87;4.47;;;9.60;99.90;;;;;;5118399;28;20194;-46
2021/12/25 05:59:03;;;;;;;6.23;5.43;;;9.60;99.90;;;;;;5118761;28;20585;-46
2021/12/25 06:01:29;;;;;;;7.33;6.13;;;9.60;99.90;;;;;;5118588;28;20179;-46
2021/12/25 06:03:56;;;;;;;7.30;5.97;;;9.50;99.90;;;;;;5118932;28;20245;-46
2021/12/25 06:06:22;;;;;;;7.00;5.60;;;9.50;99.90;;;;;;5118425;28;20410;-46
2021/12/25 06:08:48;;;;;;;8.90;7.70;;;9.50;99.90;;;;;;5118629;28;20843;-46
2021/12/25 06:11:16;;;;;;;7.70;6.97;;;9.50;99.90;;;;;;5118695;28;20423;-46
2021/12/25 06:13:54;;;;;;;8.17;7.37;;;9.50;99.90;;;;;;5118420;28;20620;-46
2021/12/25 06:16:20;;;;;;;9.23;7.60;;;9.50;99.90;;;;;;5102132;28;20433;-46
2021/12/25 06:18:46;;;;;;;7.57;6.57;;;9.50;99.90;;;;;;5118185;28;20804;-46
2021/12/25 06:21:11;;;;;;;7.73;7.00;;;9.40;99.90;;;;;;5118660;28;20168;-46
2021/12/25 06:23:37;;;;;;;9.57;7.83;;;9.50;99.90;;;;;;5118180;28;20562;-46
2021/12/25 06:26:03;;;;;;;8.27;7.03;;;9.40;99.90;;;;;;5118136;28;20183;-46
2021/12/25 06:28:28;;;;;;;8.97;7.13;;;9.40;99.90;;;;;;5118480;28;20248;-47
2021/12/25 06:30:54;;;;;;;8.03;7.23;;;9.40;99.90;;;;;;5118260;28;20202;-46
2021/12/25 06:33:20;;;;;;;8.13;7.10;;;9.40;99.90;;;;;;5117945;28;20240;-46
2021/12/25 06:35:45;;;;;;;8.03;7.20;;;9.40;99.90;;;;;;5117939;28;20570;-46
2021/12/25 06:38:11;;;;;;;7.27;6.57;;;9.40;99.90;;;;;;5118312;28;20291;-46
2021/12/25 06:40:36;;;;;;;8.77;7.20;;;9.40;99.90;;;;;;5100304;28;20267;-46
2021/12/25 06:43:02;;;;;;;8.10;7.30;;;9.40;99.90;;;;;;5117245;28;20187;-46
2021/12/25 06:45:31;;;;;;;7.33;6.33;;;9.40;99.90;;;;;;5117349;28;20464;-46
2021/12/25 06:47:57;;;;;;;7.90;6.30;;;9.40;99.90;;;;;;5116867;28;20480;-46
2021/12/25 06:50:25;;;;;;;9.93;6.80;;;9.40;99.90;;;;;;5116634;28;20433;-46
2021/12/25 06:52:51;;;;;;;8.70;6.97;;;9.40;99.90;;;;;;5116394;28;20172;-46
2021/12/25 06:55:16;;;;;;;7.17;6.47;;;9.40;99.90;;;;;;5098351;28;20437;-46
2021/12/25 06:57:54;;;;;;;6.60;5.90;;;9.40;99.90;;;;;;5115771;28;20163;-46
2021/12/25 07:00:21;;;;;;;5.90;5.30;;;9.50;99.90;;;;;;5117154;28;20479;-46
2021/12/25 07:02:46;;;;;;;8.10;5.07;;;9.50;99.90;;;;;;5117489;28;20413;-46
2021/12/25 07:05:12;;;;;;;6.93;5.53;;;9.50;99.90;;;;;;5117961;28;20430;-46
2021/12/25 07:07:41;;;;;;;6.33;5.73;;;9.40;99.90;;;;;;5119172;28;20234;-46
2021/12/25 07:10:07;;;;;;;6.17;5.57;;;9.40;99.90;;;;;;5120346;28;20229;-46
2021/12/25 07:12:36;;;;;;;6.00;5.10;;;9.50;99.90;;;;;;5120651;28;20512;-46
2021/12/25 07:15:06;;;;;;;7.93;5.60;;;9.50;99.90;;;;;;5120056;28;20426;-46
2021/12/25 07:17:35;;;;;;;5.80;5.03;;;9.50;99.90;;;;;;5120356;28;20975;-46
2021/12/25 07:20:01;;;;;;;4.93;4.53;;;9.50;99.90;;;;;;5120063;28;20481;-46
2021/12/25 07:22:27;;;;;;;6.20;4.53;;;9.50;99.90;;;;;;5120226;28;20900;-46
2021/12/25 07:24:55;;;;;;;4.40;3.93;;;9.50;99.90;;;;;;5121605;28;20473;-46
2021/12/25 07:27:21;;;;;;;5.17;4.67;;;9.50;99.90;;;;;;5121761;28;20412;-46
2021/12/25 07:29:46;;;;;;;6.27;4.93;;;9.50;99.90;;;;;;5121264;28;20455;-46
2021/12/25 07:32:12;;;;;;;6.40;5.80;;;9.60;99.90;;;;;;5121594;28;20417;-46
2021/12/25 07:34:39;;;;;;;4.97;4.50;;;9.60;99.90;;;;;;5121420;28;20191;-46
2021/12/25 07:37:05;;;;;;;6.20;4.57;;;9.60;99.90;;;;;;5121384;28;20172;-46
2021/12/25 07:39:34;;;;;;;4.63;4.20;;;9.60;99.90;;;;;;5121215;28;20479;-46
2021/12/25 07:41:59;;;;;;;4.77;4.37;;;9.60;99.90;;;;;;5121434;28;20422;-46
2021/12/25 07:44:25;;;;;;;5.20;4.53;;;9.60;99.90;;;;;;5121231;28;20506;-46
2021/12/25 07:46:51;;;;;;;5.80;5.30;;;9.60;99.90;;;;;;5120747;28;20219;-46
2021/12/25 07:49:19;;;;;;;5.70;5.10;;;9.70;99.90;;;;;;5120240;28;20197;-46
2021/12/25 07:51:46;;;;;;;5.30;4.73;;;9.70;99.90;;;;;;5120739;28;20425;-47
2021/12/25 07:54:11;;;;;;;5.30;4.80;;;9.70;99.90;;;;;;5120339;28;20452;-46
2021/12/25 07:56:37;;;;;;;6.83;5.53;;;9.70;99.90;;;;;;5120748;28;20820;-46
2021/12/25 07:59:07;;;;;;;6.80;6.10;;;9.70;99.90;;;;;;5102878;28;20238;-46
2021/12/25 08:01:35;;;;;;;7.30;5.77;;;9.70;99.90;;;;;;5120754;28;20403;-46
2021/12/25 08:04:04;;;;;;;7.60;6.80;;;9.70;99.90;;;;;;5120291;28;20515;-46
2021/12/25 08:06:30;;;;;;;7.53;6.60;;;9.80;99.90;;;;;;5120107;28;20818;-47
2021/12/25 08:08:59;;;;;;;8.17;6.70;;;9.80;99.90;;;;;;5120163;28;20507;-48
2021/12/25 08:11:28;;;;;;;9.60;6.00;;;9.80;99.90;;;;;;5119969;28;20413;-47
2021/12/25 08:13:54;;;;;;;8.47;7.03;;;9.80;99.90;;;;;;5119086;28;20407;-47
2021/12/25 08:16:19;;;;;;;8.23;6.67;;;9.80;99.90;;;;;;5119063;28;20855;-47
2021/12/25 08:18:45;;;;;;;8.07;6.87;;;9.90;99.90;;;;;;5118021;28;20477;-47
2021/12/25 08:21:11;;;;;;;7.57;6.87;;;9.80;99.90;;;;;;5118163;28;20657;-48
2021/12/25 08:23:37;;;;;;;9.63;7.00;;;9.90;99.90;;;;;;5117897;28;20449;-47
2021/12/25 08:26:05;;;;;;;8.83;7.50;;;9.90;99.90;;;;;;5118686;28;20617;-47
2021/12/25 08:28:31;;;;;;;10.30;6.33;;;9.90;99.90;;;;;;5100683;28;20466;-47
2021/12/25 08:30:57;;;;;;;7.17;6.47;;;9.90;99.90;;;;;;5119161;28;20429;-48
2021/12/25 08:33:23;;;;;;;7.37;6.50;;;9.90;99.90;;;;;;5118720;28;20425;-47
2021/12/25 08:35:49;;;;;;;7.17;6.20;;;10.00;99.90;;;;;;5118859;28;20429;-47
2021/12/25 08:38:15;;;;;;;8.23;6.90;;;10.00;99.90;;;;;;5119489;28;20593;-47
2021/12/25 08:40:42;;;;;;;8.60;6.60;;;10.00;99.90;;;;;;5119623;28;20942;-47
2021/12/25 08:43:08;;;;;;;9.50;6.40;;;10.10;99.90;;;;;;5118796;28;20172;-47
2021/12/25 08:46:00;;;;;;;7.70;6.27;;;10.20;99.90;;;;;;5119434;27;20453;-47
2021/12/25 08:48:26;;;;;;;8.50;6.87;;;10.20;99.90;;;;;;5128076;27;20437;-47
2021/12/25 08:50:56;;;;;;;7.10;6.33;;;10.30;99.90;;;;;;5139657;27;20467;-47
2021/12/25 08:53:24;;;;;;;6.67;5.90;;;10.30;99.90;;;;;;5139411;27;20417;-47
2021/12/25 08:55:51;;;;;;;6.27;5.63;;;10.40;99.90;;;;;;5140243;27;20441;-47
2021/12/25 08:58:17;;;;;;;6.67;5.43;;;10.40;99.90;;;;;;5139322;27;20865;-47
2021/12/25 09:00:43;;;;;;;6.53;5.73;;;10.40;99.90;;;;;;5139181;27;20424;-47
2021/12/25 09:03:09;;;;;;;7.00;6.30;;;10.50;99.90;;;;;;5140115;27;20400;-47
2021/12/25 09:05:35;;;;;;;6.13;5.27;;;10.60;99.90;;;;;;5139794;27;20528;-47
2021/12/25 09:08:01;;;;;;;6.17;4.83;;;10.60;99.90;;;;;;5139042;27;20505;-47
2021/12/25 09:10:28;;;;;;;5.70;5.20;;;10.70;99.80;;;;;;5139374;27;20435;-47
2021/12/25 09:12:58;;;;;;;6.43;5.63;;;10.70;99.70;;;;;;5139697;27;20818;-48
2021/12/25 09:15:24;;;;;;;5.80;5.20;;;10.70;99.70;;;;;;5121685;27;20443;-46
2021/12/25 09:17:52;;;;;;;5.73;4.40;;;10.80;99.60;;;;;;5139109;27;20819;-46
2021/12/25 09:20:19;;;;;;;4.67;4.17;;;10.80;99.60;;;;;;5121401;27;20421;-46
2021/12/25 09:22:44;;;;;;;5.77;4.50;;;10.80;99.60;;;;;;5139626;27;20408;-46
2021/12/25 09:25:10;;;;;;;5.00;4.50;;;10.80;99.50;;;;;;5139798;27;20712;-47
2021/12/25 09:27:36;;;;;;;5.40;4.90;;;10.80;99.50;;;;;;5139515;27;20548;-46
2021/12/25 09:30:06;;;;;;;6.30;5.43;;;10.90;99.50;;;;;;5138696;27;20254;-47
2021/12/25 09:32:31;;;;;;;5.53;4.80;;;10.90;99.50;;;;;;5120657;27;20431;-46
2021/12/25 09:35:00;;;;;;;5.40;4.90;;;10.90;99.50;;;;;;5138963;27;20432;-46
2021/12/25 09:37:26;;;;;;;5.60;5.10;;;11.00;99.40;;;;;;5139335;27;20173;-46
2021/12/25 09:39:52;;;;;;;7.13;5.10;;;11.00;99.40;;;;;;5139285;27;20483;-52
2021/12/25 09:42:19;;;;;;;6.10;5.00;;;11.10;99.30;;;;;;5139634;27;20410;-48
2021/12/25 09:44:45;;;;;;;7.50;5.30;;;11.10;99.30;;;;;;5139502;27;20185;-47
2021/12/25 09:47:10;;;;;;;5.90;5.23;;;11.00;99.20;;;;;;5139228;27;20878;-47
2021/12/25 09:49:36;;;;;;;5.90;5.30;;;11.10;99.20;;;;;;5139532;27;20514;-47
2021/12/25 09:52:03;;;;;;;6.00;4.87;;;11.10;99.50;;;;;;5139892;27;20286;-47
2021/12/25 09:54:29;;;;;;;1.80;1.50;;;11.00;99.10;;;;;;5139563;27;20256;-45
2021/12/25 09:56:57;;;;;;;2.90;1.87;;;11.40;99.90;;;;;;5139197;27;20807;-45
2021/12/25 09:59:23;;;;;;;10.00;1.80;;;13.00;99.90;;;;;;5120591;27;20213;-42
2021/12/25 10:01:53;;;;;;;3.23;2.60;;;14.40;99.90;;;;;;5139818;27;20487;-42
2021/12/25 10:04:36;;;;;;;2.20;1.80;;;15.60;98.50;;;;;;5139821;27;20182;-43
2021/12/25 10:07:25;;;;;;;4.77;2.30;;;16.50;96.10;;;;;;5140003;27;20419;-44
2021/12/25 10:10:05;;;;;;;3.17;2.27;;;17.00;94.40;;;;;;5139222;27;20914;-44
2021/12/25 10:12:38;;;;;;;3.67;2.70;;;17.50;93.10;;;;;;5137693;27;20440;-44
2021/12/25 10:15:14;;;;;;;4.30;2.17;;;17.80;92.10;;;;;;5136356;27;20504;-45
2021/12/25 10:17:49;;;;;;;3.47;2.30;;;18.00;91.40;;;;;;5136307;27;20458;-44
2021/12/25 10:20:21;;;;;;;4.33;2.27;;;18.20;90.80;;;;;;5117877;27;20480;-44
2021/12/25 10:23:15;;;;;;;6.00;2.67;;;18.30;90.60;;;;;;5136412;27;20561;-43
2021/12/25 10:25:47;;;;;;;9.43;2.43;;;18.40;90.30;;;;;;5128123;27;20555;-44
2021/12/25 10:28:15;;;;;;;4.67;2.30;;;18.40;90.30;;;;;;5137670;27;20412;-43
2021/12/25 10:30:58;;;;;;;4.60;2.83;;;18.50;89.30;;;;;;5137071;27;20747;-44
2021/12/25 10:33:44;;;;;;;6.20;2.97;;;18.60;88.60;;;;;;5137167;27;20416;-42
2021/12/25 10:36:22;;;;;;;4.00;2.70;;;18.80;86.80;;;;;;5138175;27;20420;-43
2021/12/25 10:39:04;;;;;;;4.27;3.57;;;19.20;85.30;;;;;;5137971;27;20458;-44
2021/12/25 10:41:34;;;;;;;7.07;3.73;;;19.50;83.80;;;;;;5137616;27;20686;-42
2021/12/25 10:44:13;;;;;;;9.50;4.40;;;19.90;82.60;;;;;;5144466;27;20469;-43
2021/12/25 10:46:56;;;;;;;4.57;3.50;;;20.30;81.10;;;;;;5144754;27;20466;-42
2021/12/25 10:49:24;;;;;;;3.93;3.40;;;20.60;79.40;;;;;;5145735;27;20489;-42
2021/12/25 10:51:50;;;;;;;4.20;3.80;;;20.90;78.20;;;;;;5128022;27;20415;-44
2021/12/25 10:54:17;;;;;;;4.90;4.07;;;21.10;76.90;;;;;;5145365;27;20689;-42
2021/12/25 10:56:47;;;;;;;4.97;4.20;;;21.50;75.90;;;;;;5145842;27;20275;-43
2021/12/25 10:59:18;;;;;;;6.00;4.20;;;21.90;74.30;;;;;;5145407;27;20460;-44
2021/12/25 11:01:49;;;;;;;6.70;4.53;;;22.30;72.80;;;;;;5144358;27;20411;-41
2021/12/25 11:04:29;;;;;;;5.57;4.57;;;22.60;71.30;;;;;;5145016;27;20413;-40
2021/12/25 11:06:56;;;;;;;5.20;3.97;;;22.90;70.40;;;;;;5129023;27;20417;-40
2021/12/25 11:09:22;;;;;;;4.10;3.50;;;23.10;69.00;;;;;;5122228;28;20504;-41
2021/12/25 11:12:21;;;;;;;4.27;3.80;;;23.10;67.50;;;;;;5122244;28;20448;-40
2021/12/25 11:14:47;;;;;;;3.40;3.10;;;23.10;67.00;;;;;;5115384;28;20475;-40
2021/12/25 11:17:26;;;;;;;3.03;2.70;;;22.90;65.70;;;;;;5120561;28;20706;-40
2021/12/25 11:20:00;;;;;;;3.30;2.93;;;22.60;66.00;;;;;;5120863;28;20721;-40
2021/12/25 11:22:28;;;;;;;3.83;3.13;;;22.20;66.60;;;;;;5121064;28;20433;-41
2021/12/25 11:24:54;;;;;;;3.73;3.20;;;21.80;67.30;;;;;;5103061;28;20775;-41
2021/12/25 11:27:21;;;;;;;3.97;2.53;;;21.30;67.90;;;;;;5103860;28;20402;-40
2021/12/25 11:29:46;;;;;;;11.90;3.20;;;21.00;68.50;;;;;;5133365;27;20435;-40
2021/12/25 11:32:13;;;;;;;17.00;4.10;;;20.70;69.50;;;;;;5143633;27;20417;-43
2021/12/25 11:34:38;;;;;;;5.90;3.07;;;20.50;70.60;;;;;;5144308;27;20228;-42
2021/12/25 11:37:05;;;;;;;5.03;2.23;;;20.10;71.30;;;;;;5144315;27;20493;-41
2021/12/25 11:39:31;;;;;;;4.60;2.67;;;19.80;71.60;;;;;;5123576;28;20212;-41
2021/12/25 11:42:04;;;;;;;6.20;2.57;;;19.40;72.40;;;;;;5123542;28;20898;-39
2021/12/25 11:44:40;;;;;;;3.30;1.77;;;19.10;73.80;;;;;;5122476;28;20518;-40
2021/12/25 11:47:10;;;;;;;2.70;1.83;;;18.80;74.60;;;;;;5123308;28;20565;-40
2021/12/25 11:49:52;;;;;;;2.77;1.73;;;18.50;75.10;;;;;;5123749;28;20447;-42
2021/12/25 11:52:19;;;;;;;9.77;3.27;;;18.20;75.90;;;;;;5133265;27;20421;-41
2021/12/25 11:57:48;;;;;;;7.77;2.90;;;17.90;81.70;;;;;;5131899;27;20492;-40
2021/12/25 12:00:13;;;;;;;5.63;3.43;;;17.80;83.60;;;;;;5119165;28;20719;-41
2021/12/25 12:02:41;;;;;;;5.50;3.27;;;17.70;84.60;;;;;;5118494;28;20410;-40
2021/12/25 12:05:31;;;;;;;5.83;3.23;;;17.60;85.50;;;;;;5118716;28;20168;-40
2021/12/25 12:07:59;;;;;;;9.90;3.67;;;17.60;86.10;;;;;;5117381;28;20641;-40
2021/12/25 12:11:01;;;;;;;5.13;3.13;;;17.60;86.70;;;;;;5117942;28;20429;-39
2021/12/25 12:13:32;;;;;;;7.00;3.77;;;17.50;87.20;;;;;;5020305;28;20429;-39
2021/12/25 12:16:03;;;;;;;7.73;2.93;;;17.40;87.30;;;;;;5106317;28;20468;-41
2021/12/25 12:18:34;;;;;;;7.87;3.10;;;17.40;87.70;;;;;;5102350;28;20461;-41
2021/12/25 12:21:18;;;;;;;4.50;2.23;;;17.30;88.00;;;;;;5120512;28;20458;-39
2021/12/25 12:26:14;;;;;;;4.90;2.57;;;17.30;88.50;;;;;;5135403;27;20450;-41
2021/12/25 12:28:54;;;;;;;5.10;2.60;;;17.30;88.60;;;;;;5121315;27;20418;-40
2021/12/25 12:31:41;;;;;;;4.70;2.20;;;17.40;88.80;;;;;;5140022;27;20518;-40
2021/12/25 12:34:29;;;;;;;3.17;2.20;;;17.40;88.60;;;;;;5121061;27;20772;-40
2021/12/25 12:37:13;;;;;;;4.90;2.33;;;17.50;88.50;;;;;;5125652;27;20459;-40
2021/12/25 12:39:56;;;;;;;2.93;1.80;;;17.60;88.40;;;;;;5139035;27;20468;-41
2021/12/25 12:42:43;;;;;;;7.10;2.40;;;17.60;88.10;;;;;;5139780;27;20454;-40
2021/12/25 12:45:09;;;;;;;3.10;2.07;;;17.70;87.80;;;;;;5139493;27;20439;-42
2021/12/25 12:47:35;;;;;;;2.93;2.00;;;17.80;87.50;;;;;;5140342;27;20533;-39
2021/12/25 12:50:01;;;;;;;3.50;2.60;;;17.90;87.20;;;;;;5139993;27;20417;-41
2021/12/25 12:52:57;;;;;;;3.20;2.23;;;17.90;86.70;;;;;;5138712;27;20181;-40
2021/12/25 12:55:32;;;;;;;1.70;1.60;;;17.90;86.40;;;;;;5102158;28;20177;-39
2021/12/25 12:58:14;;;;;;;3.47;1.70;;;17.90;86.30;;;;;;5102076;28;20533;-39
2021/12/25 13:00:43;;;;;;;2.97;2.23;;;17.90;86.20;;;;;;5120102;28;20749;-39
2021/12/25 13:03:09;;;;;;;2.53;1.80;;;17.80;85.00;;;;;;5120919;28;20857;-39
2021/12/25 13:05:41;;;;;;;2.33;1.40;;;17.50;82.90;;;;;;5120362;28;20437;-39
2021/12/25 13:08:19;;;;;;;2.07;1.87;;;17.10;82.40;;;;;;5119617;28;20235;-39
2021/12/25 13:13:21;;;;;;;1.90;1.50;;;16.40;82.70;;;;;;5118957;28;20432;-40
2021/12/25 13:15:49;;;;;;;2.40;1.87;;;16.10;83.10;;;;;;5116499;28;20711;-39
2021/12/25 13:18:16;;;;;;;2.60;1.60;;;15.80;83.70;;;;;;5115906;28;20496;-40
2021/12/25 13:20:49;;;;;;;2.00;1.47;;;15.50;84.20;;;;;;5116594;28;20433;-38
2021/12/25 13:23:27;;;;;;;2.67;2.27;;;15.30;84.90;;;;;;5115905;28;20526;-39
2021/12/25 13:26:21;;;;;;;2.13;1.40;;;15.20;85.60;;;;;;5116735;28;20783;-40
2021/12/25 13:28:49;;;;;;;1.90;1.60;;;15.00;86.10;;;;;;5113310;28;20424;-39
2021/12/25 13:31:18;;;;;;;2.33;1.80;;;14.90;86.40;;;;;;5099585;28;20441;-39
2021/12/25 13:33:59;;;;;;;2.20;2.00;;;14.70;86.40;;;;;;5097810;28;20416;-40
2021/12/25 13:36:30;;;;;;;2.40;2.17;;;14.60;86.70;;;;;;5116693;28;20695;-40
2021/12/25 13:39:03;;;;;;;2.90;2.43;;;14.60;87.00;;;;;;5116427;28;20468;-42
2021/12/25 13:41:34;;;;;;;2.27;1.90;;;14.50;87.30;;;;;;5115952;28;20490;-41
2021/12/25 13:44:20;;;;;;;5.47;2.17;;;14.40;87.50;;;;;;5117035;28;20456;-41
2021/12/25 13:46:55;;;;;;;2.43;2.00;;;14.30;87.80;;;;;;5117210;28;20512;-42
2021/12/25 13:49:30;;;;;;;2.47;2.00;;;14.20;88.10;;;;;;5118027;28;20452;-40
2021/12/25 13:51:58;;;;;;;2.10;1.90;;;14.20;88.40;;;;;;5118023;28;20455;-40
2021/12/25 13:54:27;;;;;;;1.87;1.63;;;14.10;88.60;;;;;;5117617;28;20710;-39
2021/12/25 13:56:55;;;;;;;3.00;2.00;;;14.10;88.90;;;;;;5117276;28;20514;-40
2021/12/25 13:59:21;;;;;;;2.87;1.90;;;14.00;89.20;;;;;;5117235;28;20472;-41
2021/12/25 14:02:11;;;;;;;1.97;1.80;;;14.00;89.50;;;;;;5117141;28;20501;-40
2021/12/25 14:04:40;;;;;;;2.27;2.07;;;14.00;89.80;;;;;;5116928;28;20698;-40
2021/12/25 14:07:06;;;;;;;2.47;2.27;;;14.00;89.90;;;;;;5117299;28;20459;-40
2021/12/25 14:09:32;;;;;;;2.47;1.90;;;13.90;90.00;;;;;;5117380;28;20402;-40
2021/12/25 14:12:01;;;;;;;2.27;2.00;;;13.90;90.10;;;;;;5117669;28;20906;-39
2021/12/25 14:14:28;;;;;;;2.20;1.93;;;13.80;90.20;;;;;;5100403;28;20418;-41
2021/12/25 14:16:55;;;;;;;4.63;2.53;;;13.80;90.30;;;;;;5099433;28;20528;-40
2021/12/25 14:19:25;;;;;;;2.40;2.10;;;13.80;90.40;;;;;;5114116;28;20479;-39
2021/12/25 14:22:03;;;;;;;3.63;2.40;;;13.70;90.50;;;;;;5117685;28;20433;-38
2021/12/25 14:24:42;;;;;;;3.23;2.70;;;13.70;90.60;;;;;;5119414;28;20424;-40
2021/12/25 14:27:12;;;;;;;3.10;2.60;;;13.60;90.70;;;;;;5082816;28;20506;-38